sensor_id;sensor_type;location;lat;lon;timestamp;P1;durP1;ratioP1;P2;durP2;ratioP2
23668;SDS011;12011;47.422;15.018;2022-09-03T00:02:35;1.55;;;1.55;;
23668;SDS011;12011;47.422;15.018;2022-09-03T00:05:15;1.53;;;1.53;;
23668;SDS011;12011;47.422;15.018;2022-09-03T00:07:54;1.50;;;1.50;;
23668;SDS011;12011;47.422;15.018;2022-09-03T00:10:33;1.88;;;1.88;;
23668;SDS011;12011;47.422;15.018;2022-09-03T00:13:19;1.67;;;1.67;;
23668;SDS011;12011;47.422;15.018;2022-09-03T00:15:56;1.81;;;1.81;;
23668;SDS011;12011;47.422;15.018;2022-09-03T00:18:27;1.93;;;1.93;;
23668;SDS011;12011;47.422;15.018;2022-09-03T00:21:02;1.95;;;1.95;;
23668;SDS011;12011;47.422;15.018;2022-09-03T00:23:39;1.92;;;1.92;;
23668;SDS011;12011;47.422;15.018;2022-09-03T00:26:17;2.12;;;2.12;;
23668;SDS011;12011;47.422;15.018;2022-09-03T00:28:56;1.89;;;1.89;;
23668;SDS011;12011;47.422;15.018;2022-09-03T00:31:34;1.78;;;1.78;;
23668;SDS011;12011;47.422;15.018;2022-09-03T00:34:10;1.64;;;1.64;;
23668;SDS011;12011;47.422;15.018;2022-09-03T00:36:50;1.74;;;1.74;;
23668;SDS011;12011;47.422;15.018;2022-09-03T00:39:22;1.82;;;1.82;;
23668;SDS011;12011;47.422;15.018;2022-09-03T00:41:57;1.82;;;1.82;;
23668;SDS011;12011;47.422;15.018;2022-09-03T00:44:53;1.96;;;1.96;;
23668;SDS011;12011;47.422;15.018;2022-09-03T00:47:42;1.97;;;1.97;;
23668;SDS011;12011;47.422;15.018;2022-09-03T00:50:29;2.02;;;2.02;;
23668;SDS011;12011;47.422;15.018;2022-09-03T00:53:15;1.72;;;1.72;;
23668;SDS011;12011;47.422;15.018;2022-09-03T00:55:57;1.90;;;1.90;;
23668;SDS011;12011;47.422;15.018;2022-09-03T01:01:46;1.78;;;1.78;;
23668;SDS011;12011;47.422;15.018;2022-09-03T01:04:32;1.60;;;1.60;;
23668;SDS011;12011;47.422;15.018;2022-09-03T01:07:17;1.95;;;1.95;;
23668;SDS011;12011;47.422;15.018;2022-09-03T01:10:06;2.18;;;2.18;;
23668;SDS011;12011;47.422;15.018;2022-09-03T01:12:58;2.31;;;2.31;;
23668;SDS011;12011;47.422;15.018;2022-09-03T01:15:38;2.28;;;2.28;;
23668;SDS011;12011;47.422;15.018;2022-09-03T01:18:24;1.78;;;1.78;;
23668;SDS011;12011;47.422;15.018;2022-09-03T01:21:08;2.21;;;2.21;;
23668;SDS011;12011;47.422;15.018;2022-09-03T01:24:17;1.89;;;1.89;;
23668;SDS011;12011;47.422;15.018;2022-09-03T01:27:28;2.03;;;2.03;;
23668;SDS011;12011;47.422;15.018;2022-09-03T01:30:16;1.98;;;1.98;;
23668;SDS011;12011;47.422;15.018;2022-09-03T01:32:51;1.98;;;1.98;;
23668;SDS011;12011;47.422;15.018;2022-09-03T01:35:32;1.95;;;1.95;;
23668;SDS011;12011;47.422;15.018;2022-09-03T01:38:15;2.10;;;2.10;;
23668;SDS011;12011;47.422;15.018;2022-09-03T01:40:59;2.30;;;2.30;;
23668;SDS011;12011;47.422;15.018;2022-09-03T01:43:56;1.90;;;1.90;;
23668;SDS011;12011;47.422;15.018;2022-09-03T01:46:40;1.89;;;1.89;;
23668;SDS011;12011;47.422;15.018;2022-09-03T01:49:15;1.85;;;1.85;;
23668;SDS011;12011;47.422;15.018;2022-09-03T01:51:54;1.86;;;1.86;;
23668;SDS011;12011;47.422;15.018;2022-09-03T01:54:44;2.07;;;2.07;;
23668;SDS011;12011;47.422;15.018;2022-09-03T01:57:42;2.21;;;2.21;;
23668;SDS011;12011;47.422;15.018;2022-09-03T02:00:20;2.34;;;2.34;;
23668;SDS011;12011;47.422;15.018;2022-09-03T02:02:55;2.10;;;2.10;;
23668;SDS011;12011;47.422;15.018;2022-09-03T02:05:30;2.13;;;2.13;;
23668;SDS011;12011;47.422;15.018;2022-09-03T02:08:04;1.70;;;1.70;;
23668;SDS011;12011;47.422;15.018;2022-09-03T02:10:37;2.03;;;2.03;;
23668;SDS011;12011;47.422;15.018;2022-09-03T02:13:12;2.30;;;2.30;;
23668;SDS011;12011;47.422;15.018;2022-09-03T02:15:46;2.12;;;2.12;;
23668;SDS011;12011;47.422;15.018;2022-09-03T02:18:24;1.70;;;1.70;;
23668;SDS011;12011;47.422;15.018;2022-09-03T02:20:59;1.69;;;1.69;;
23668;SDS011;12011;47.422;15.018;2022-09-03T02:23:29;1.81;;;1.81;;
23668;SDS011;12011;47.422;15.018;2022-09-03T02:26:00;2.07;;;2.07;;
23668;SDS011;12011;47.422;15.018;2022-09-03T02:28:31;2.15;;;2.15;;
23668;SDS011;12011;47.422;15.018;2022-09-03T02:31:01;1.96;;;1.96;;
23668;SDS011;12011;47.422;15.018;2022-09-03T02:33:35;1.87;;;1.87;;
23668;SDS011;12011;47.422;15.018;2022-09-03T02:36:08;1.68;;;1.68;;
23668;SDS011;12011;47.422;15.018;2022-09-03T02:38:41;1.82;;;1.82;;
23668;SDS011;12011;47.422;15.018;2022-09-03T02:41:12;1.57;;;1.57;;
23668;SDS011;12011;47.422;15.018;2022-09-03T02:43:44;2.06;;;2.06;;
23668;SDS011;12011;47.422;15.018;2022-09-03T02:46:20;2.01;;;2.01;;
23668;SDS011;12011;47.422;15.018;2022-09-03T02:48:56;1.80;;;1.80;;
23668;SDS011;12011;47.422;15.018;2022-09-03T02:51:26;1.48;;;1.48;;
23668;SDS011;12011;47.422;15.018;2022-09-03T02:54:01;1.80;;;1.80;;
23668;SDS011;12011;47.422;15.018;2022-09-03T02:56:31;2.04;;;2.04;;
23668;SDS011;12011;47.422;15.018;2022-09-03T02:59:01;1.55;;;1.55;;
23668;SDS011;12011;47.422;15.018;2022-09-03T03:01:33;1.92;;;1.92;;
23668;SDS011;12011;47.422;15.018;2022-09-03T03:04:06;1.76;;;1.76;;
23668;SDS011;12011;47.422;15.018;2022-09-03T03:06:36;1.70;;;1.70;;
23668;SDS011;12011;47.422;15.018;2022-09-03T03:09:06;1.69;;;1.69;;
23668;SDS011;12011;47.422;15.018;2022-09-03T03:11:35;1.54;;;1.54;;
23668;SDS011;12011;47.422;15.018;2022-09-03T03:14:05;1.84;;;1.84;;
23668;SDS011;12011;47.422;15.018;2022-09-03T03:16:35;2.28;;;2.28;;
23668;SDS011;12011;47.422;15.018;2022-09-03T03:19:07;1.98;;;1.98;;
23668;SDS011;12011;47.422;15.018;2022-09-03T03:21:37;2.01;;;2.01;;
23668;SDS011;12011;47.422;15.018;2022-09-03T03:24:08;2.06;;;2.06;;
23668;SDS011;12011;47.422;15.018;2022-09-03T03:26:38;2.09;;;2.09;;
23668;SDS011;12011;47.422;15.018;2022-09-03T03:29:07;1.60;;;1.60;;
23668;SDS011;12011;47.422;15.018;2022-09-03T03:31:45;1.83;;;1.83;;
23668;SDS011;12011;47.422;15.018;2022-09-03T03:34:17;1.90;;;1.90;;
23668;SDS011;12011;47.422;15.018;2022-09-03T03:36:47;1.72;;;1.72;;
23668;SDS011;12011;47.422;15.018;2022-09-03T03:39:17;1.87;;;1.87;;
23668;SDS011;12011;47.422;15.018;2022-09-03T03:41:46;1.64;;;1.64;;
23668;SDS011;12011;47.422;15.018;2022-09-03T03:44:17;1.98;;;1.98;;
23668;SDS011;12011;47.422;15.018;2022-09-03T03:46:47;1.97;;;1.97;;
23668;SDS011;12011;47.422;15.018;2022-09-03T03:49:19;2.07;;;2.07;;
23668;SDS011;12011;47.422;15.018;2022-09-03T03:51:49;2.09;;;2.09;;
23668;SDS011;12011;47.422;15.018;2022-09-03T03:54:18;2.07;;;2.07;;
23668;SDS011;12011;47.422;15.018;2022-09-03T03:56:48;1.74;;;1.74;;
23668;SDS011;12011;47.422;15.018;2022-09-03T03:59:18;1.56;;;1.56;;
23668;SDS011;12011;47.422;15.018;2022-09-03T04:01:47;1.68;;;1.68;;
23668;SDS011;12011;47.422;15.018;2022-09-03T04:04:20;1.82;;;1.82;;
23668;SDS011;12011;47.422;15.018;2022-09-03T04:06:50;2.00;;;2.00;;
23668;SDS011;12011;47.422;15.018;2022-09-03T04:09:19;2.11;;;2.11;;
23668;SDS011;12011;47.422;15.018;2022-09-03T04:11:49;1.83;;;1.83;;
23668;SDS011;12011;47.422;15.018;2022-09-03T04:14:21;2.05;;;2.05;;
23668;SDS011;12011;47.422;15.018;2022-09-03T04:16:52;1.81;;;1.81;;
23668;SDS011;12011;47.422;15.018;2022-09-03T04:19:24;1.96;;;1.96;;
23668;SDS011;12011;47.422;15.018;2022-09-03T04:21:55;2.11;;;2.11;;
23668;SDS011;12011;47.422;15.018;2022-09-03T04:24:25;2.00;;;2.00;;
23668;SDS011;12011;47.422;15.018;2022-09-03T04:26:54;1.97;;;1.97;;
23668;SDS011;12011;47.422;15.018;2022-09-03T04:29:24;2.20;;;2.20;;
23668;SDS011;12011;47.422;15.018;2022-09-03T04:31:55;1.87;;;1.87;;
23668;SDS011;12011;47.422;15.018;2022-09-03T04:34:40;1.94;;;1.94;;
23668;SDS011;12011;47.422;15.018;2022-09-03T04:37:10;1.86;;;1.86;;
23668;SDS011;12011;47.422;15.018;2022-09-03T04:39:41;1.99;;;1.99;;
23668;SDS011;12011;47.422;15.018;2022-09-03T04:42:10;2.12;;;2.12;;
23668;SDS011;12011;47.422;15.018;2022-09-03T04:44:40;2.13;;;2.13;;
23668;SDS011;12011;47.422;15.018;2022-09-03T04:47:10;2.77;;;2.77;;
23668;SDS011;12011;47.422;15.018;2022-09-03T04:49:42;2.77;;;2.77;;
23668;SDS011;12011;47.422;15.018;2022-09-03T04:52:12;3.64;;;3.64;;
23668;SDS011;12011;47.422;15.018;2022-09-03T04:54:42;3.54;;;3.54;;
23668;SDS011;12011;47.422;15.018;2022-09-03T04:57:12;2.97;;;2.97;;
23668;SDS011;12011;47.422;15.018;2022-09-03T04:59:41;2.25;;;2.25;;
23668;SDS011;12011;47.422;15.018;2022-09-03T05:02:12;2.50;;;2.50;;
23668;SDS011;12011;47.422;15.018;2022-09-03T05:04:44;2.34;;;2.34;;
23668;SDS011;12011;47.422;15.018;2022-09-03T05:07:17;2.49;;;2.49;;
23668;SDS011;12011;47.422;15.018;2022-09-03T05:09:47;2.11;;;2.11;;
23668;SDS011;12011;47.422;15.018;2022-09-03T05:12:17;1.96;;;1.96;;
23668;SDS011;12011;47.422;15.018;2022-09-03T05:14:47;1.99;;;1.99;;
23668;SDS011;12011;47.422;15.018;2022-09-03T05:17:17;1.83;;;1.83;;
23668;SDS011;12011;47.422;15.018;2022-09-03T05:19:49;1.70;;;1.70;;
23668;SDS011;12011;47.422;15.018;2022-09-03T05:22:18;1.86;;;1.86;;
23668;SDS011;12011;47.422;15.018;2022-09-03T05:24:48;1.58;;;1.58;;
23668;SDS011;12011;47.422;15.018;2022-09-03T05:27:22;1.45;;;1.45;;
23668;SDS011;12011;47.422;15.018;2022-09-03T05:29:52;1.45;;;1.45;;
23668;SDS011;12011;47.422;15.018;2022-09-03T05:32:22;1.51;;;1.51;;
23668;SDS011;12011;47.422;15.018;2022-09-03T05:34:55;1.55;;;1.55;;
23668;SDS011;12011;47.422;15.018;2022-09-03T05:37:25;1.66;;;1.66;;
23668;SDS011;12011;47.422;15.018;2022-09-03T05:39:55;1.57;;;1.57;;
23668;SDS011;12011;47.422;15.018;2022-09-03T05:42:25;1.29;;;1.29;;
23668;SDS011;12011;47.422;15.018;2022-09-03T05:44:55;1.21;;;1.21;;
23668;SDS011;12011;47.422;15.018;2022-09-03T05:47:25;1.38;;;1.38;;
23668;SDS011;12011;47.422;15.018;2022-09-03T05:49:57;1.20;;;1.20;;
23668;SDS011;12011;47.422;15.018;2022-09-03T05:52:27;1.37;;;1.37;;
23668;SDS011;12011;47.422;15.018;2022-09-03T05:54:57;1.42;;;1.42;;
23668;SDS011;12011;47.422;15.018;2022-09-03T05:57:27;1.56;;;1.56;;
23668;SDS011;12011;47.422;15.018;2022-09-03T05:59:57;1.30;;;1.30;;
23668;SDS011;12011;47.422;15.018;2022-09-03T06:02:26;1.35;;;1.35;;
23668;SDS011;12011;47.422;15.018;2022-09-03T06:05:00;1.23;;;1.23;;
23668;SDS011;12011;47.422;15.018;2022-09-03T06:07:29;1.54;;;1.54;;
23668;SDS011;12011;47.422;15.018;2022-09-03T06:09:59;1.66;;;1.66;;
23668;SDS011;12011;47.422;15.018;2022-09-03T06:12:29;1.56;;;1.56;;
23668;SDS011;12011;47.422;15.018;2022-09-03T06:15:00;1.48;;;1.48;;
23668;SDS011;12011;47.422;15.018;2022-09-03T06:17:30;1.40;;;1.40;;
23668;SDS011;12011;47.422;15.018;2022-09-03T06:20:02;1.55;;;1.55;;
23668;SDS011;12011;47.422;15.018;2022-09-03T06:22:33;1.53;;;1.53;;
23668;SDS011;12011;47.422;15.018;2022-09-03T06:25:03;1.55;;;1.55;;
23668;SDS011;12011;47.422;15.018;2022-09-03T06:27:34;1.50;;;1.50;;
23668;SDS011;12011;47.422;15.018;2022-09-03T06:30:04;1.71;;;1.71;;
23668;SDS011;12011;47.422;15.018;2022-09-03T06:32:42;1.64;;;1.64;;
23668;SDS011;12011;47.422;15.018;2022-09-03T06:35:15;1.69;;;1.69;;
23668;SDS011;12011;47.422;15.018;2022-09-03T06:37:45;1.49;;;1.49;;
23668;SDS011;12011;47.422;15.018;2022-09-03T06:40:16;1.60;;;1.60;;
23668;SDS011;12011;47.422;15.018;2022-09-03T06:42:54;1.47;;;1.47;;
23668;SDS011;12011;47.422;15.018;2022-09-03T06:45:28;1.40;;;1.40;;
23668;SDS011;12011;47.422;15.018;2022-09-03T06:47:58;1.23;;;1.23;;
23668;SDS011;12011;47.422;15.018;2022-09-03T06:50:30;1.23;;;1.23;;
23668;SDS011;12011;47.422;15.018;2022-09-03T06:53:00;1.56;;;1.56;;
23668;SDS011;12011;47.422;15.018;2022-09-03T06:55:30;1.70;;;1.70;;
23668;SDS011;12011;47.422;15.018;2022-09-03T06:58:04;1.48;;;1.48;;
23668;SDS011;12011;47.422;15.018;2022-09-03T07:00:35;1.83;;;1.83;;
23668;SDS011;12011;47.422;15.018;2022-09-03T07:03:05;1.41;;;1.41;;
23668;SDS011;12011;47.422;15.018;2022-09-03T07:05:37;1.41;;;1.41;;
23668;SDS011;12011;47.422;15.018;2022-09-03T07:08:08;1.58;;;1.58;;
23668;SDS011;12011;47.422;15.018;2022-09-03T07:10:38;1.71;;;1.71;;
23668;SDS011;12011;47.422;15.018;2022-09-03T07:13:08;1.27;;;1.27;;
23668;SDS011;12011;47.422;15.018;2022-09-03T07:15:38;1.41;;;1.41;;
23668;SDS011;12011;47.422;15.018;2022-09-03T07:18:08;1.29;;;1.29;;
23668;SDS011;12011;47.422;15.018;2022-09-03T07:20:40;1.44;;;1.44;;
23668;SDS011;12011;47.422;15.018;2022-09-03T07:23:12;1.46;;;1.46;;
23668;SDS011;12011;47.422;15.018;2022-09-03T07:25:42;1.37;;;1.37;;
23668;SDS011;12011;47.422;15.018;2022-09-03T07:28:20;1.17;;;1.17;;
23668;SDS011;12011;47.422;15.018;2022-09-03T07:30:51;1.24;;;1.24;;
23668;SDS011;12011;47.422;15.018;2022-09-03T07:33:23;1.37;;;1.37;;
23668;SDS011;12011;47.422;15.018;2022-09-03T07:35:55;1.36;;;1.36;;
23668;SDS011;12011;47.422;15.018;2022-09-03T07:38:31;1.47;;;1.47;;
23668;SDS011;12011;47.422;15.018;2022-09-03T07:41:02;1.34;;;1.34;;
23668;SDS011;12011;47.422;15.018;2022-09-03T07:43:35;1.31;;;1.31;;
23668;SDS011;12011;47.422;15.018;2022-09-03T07:46:08;1.44;;;1.44;;
23668;SDS011;12011;47.422;15.018;2022-09-03T07:48:39;1.33;;;1.33;;
23668;SDS011;12011;47.422;15.018;2022-09-03T07:51:12;1.18;;;1.18;;
23668;SDS011;12011;47.422;15.018;2022-09-03T07:53:42;1.16;;;1.16;;
23668;SDS011;12011;47.422;15.018;2022-09-03T07:56:12;1.15;;;1.15;;
23668;SDS011;12011;47.422;15.018;2022-09-03T07:58:43;1.30;;;1.30;;
23668;SDS011;12011;47.422;15.018;2022-09-03T08:01:13;1.41;;;1.41;;
23668;SDS011;12011;47.422;15.018;2022-09-03T08:03:45;1.24;;;1.24;;
23668;SDS011;12011;47.422;15.018;2022-09-03T08:06:21;1.16;;;1.16;;
23668;SDS011;12011;47.422;15.018;2022-09-03T08:08:53;1.18;;;1.18;;
23668;SDS011;12011;47.422;15.018;2022-09-03T08:11:26;1.15;;;1.15;;
23668;SDS011;12011;47.422;15.018;2022-09-03T08:13:57;1.16;;;1.16;;
23668;SDS011;12011;47.422;15.018;2022-09-03T08:16:31;1.07;;;1.07;;
23668;SDS011;12011;47.422;15.018;2022-09-03T08:19:04;1.06;;;1.06;;
23668;SDS011;12011;47.422;15.018;2022-09-03T08:21:37;1.18;;;1.18;;
23668;SDS011;12011;47.422;15.018;2022-09-03T08:24:09;1.17;;;1.17;;
23668;SDS011;12011;47.422;15.018;2022-09-03T08:26:40;1.39;;;1.39;;
23668;SDS011;12011;47.422;15.018;2022-09-03T08:29:10;1.21;;;1.21;;
23668;SDS011;12011;47.422;15.018;2022-09-03T08:31:40;1.16;;;1.16;;
23668;SDS011;12011;47.422;15.018;2022-09-03T08:34:09;1.04;;;1.04;;
23668;SDS011;12011;47.422;15.018;2022-09-03T08:36:44;1.10;;;1.10;;
23668;SDS011;12011;47.422;15.018;2022-09-03T08:39:15;0.98;;;0.98;;
23668;SDS011;12011;47.422;15.018;2022-09-03T08:44:48;1.13;;;1.13;;
23668;SDS011;12011;47.422;15.018;2022-09-03T08:47:22;0.88;;;0.88;;
23668;SDS011;12011;47.422;15.018;2022-09-03T08:49:58;0.91;;;0.91;;
23668;SDS011;12011;47.422;15.018;2022-09-03T08:52:40;1.02;;;1.02;;
23668;SDS011;12011;47.422;15.018;2022-09-03T08:55:17;0.90;;;0.90;;
23668;SDS011;12011;47.422;15.018;2022-09-03T08:57:55;0.90;;;0.90;;
23668;SDS011;12011;47.422;15.018;2022-09-03T09:00:36;0.85;;;0.85;;
23668;SDS011;12011;47.422;15.018;2022-09-03T09:03:23;0.85;;;0.85;;
23668;SDS011;12011;47.422;15.018;2022-09-03T09:06:15;0.81;;;0.81;;
23668;SDS011;12011;47.422;15.018;2022-09-03T09:09:06;0.74;;;0.74;;
23668;SDS011;12011;47.422;15.018;2022-09-03T09:11:57;0.89;;;0.89;;
23668;SDS011;12011;47.422;15.018;2022-09-03T09:14:42;0.85;;;0.85;;
23668;SDS011;12011;47.422;15.018;2022-09-03T09:17:24;0.85;;;0.85;;
23668;SDS011;12011;47.422;15.018;2022-09-03T09:20:17;0.67;;;0.67;;
23668;SDS011;12011;47.422;15.018;2022-09-03T09:22:56;0.77;;;0.77;;
23668;SDS011;12011;47.422;15.018;2022-09-03T09:25:36;0.76;;;0.76;;
23668;SDS011;12011;47.422;15.018;2022-09-03T09:28:16;0.78;;;0.78;;
23668;SDS011;12011;47.422;15.018;2022-09-03T09:30:49;0.87;;;0.87;;
23668;SDS011;12011;47.422;15.018;2022-09-03T09:33:23;0.81;;;0.81;;
23668;SDS011;12011;47.422;15.018;2022-09-03T09:35:53;0.94;;;0.94;;
23668;SDS011;12011;47.422;15.018;2022-09-03T09:38:27;0.87;;;0.87;;
23668;SDS011;12011;47.422;15.018;2022-09-03T09:41:10;0.65;;;0.65;;
23668;SDS011;12011;47.422;15.018;2022-09-03T09:43:43;0.85;;;0.85;;
23668;SDS011;12011;47.422;15.018;2022-09-03T09:46:14;0.66;;;0.66;;
23668;SDS011;12011;47.422;15.018;2022-09-03T09:48:50;0.71;;;0.71;;
23668;SDS011;12011;47.422;15.018;2022-09-03T09:51:25;0.71;;;0.71;;
23668;SDS011;12011;47.422;15.018;2022-09-03T09:54:00;0.70;;;0.70;;
23668;SDS011;12011;47.422;15.018;2022-09-03T09:56:43;0.73;;;0.73;;
23668;SDS011;12011;47.422;15.018;2022-09-03T09:59:14;0.74;;;0.74;;
23668;SDS011;12011;47.422;15.018;2022-09-03T10:01:47;0.81;;;0.81;;
23668;SDS011;12011;47.422;15.018;2022-09-03T10:04:20;0.59;;;0.59;;
23668;SDS011;12011;47.422;15.018;2022-09-03T10:06:53;0.78;;;0.78;;
23668;SDS011;12011;47.422;15.018;2022-09-03T10:09:25;0.78;;;0.78;;
23668;SDS011;12011;47.422;15.018;2022-09-03T10:12:12;0.67;;;0.67;;
23668;SDS011;12011;47.422;15.018;2022-09-03T10:14:52;0.79;;;0.79;;
23668;SDS011;12011;47.422;15.018;2022-09-03T10:17:41;0.56;;;0.56;;
23668;SDS011;12011;47.422;15.018;2022-09-03T10:20:23;0.78;;;0.78;;
23668;SDS011;12011;47.422;15.018;2022-09-03T10:23:06;0.81;;;0.81;;
23668;SDS011;12011;47.422;15.018;2022-09-03T10:25:46;0.66;;;0.66;;
23668;SDS011;12011;47.422;15.018;2022-09-03T10:28:35;0.79;;;0.79;;
23668;SDS011;12011;47.422;15.018;2022-09-03T10:31:12;0.84;;;0.84;;
23668;SDS011;12011;47.422;15.018;2022-09-03T10:34:05;0.71;;;0.71;;
23668;SDS011;12011;47.422;15.018;2022-09-03T10:36:46;0.90;;;0.90;;
23668;SDS011;12011;47.422;15.018;2022-09-03T10:39:32;0.81;;;0.81;;
23668;SDS011;12011;47.422;15.018;2022-09-03T10:42:22;0.79;;;0.79;;
23668;SDS011;12011;47.422;15.018;2022-09-03T10:45:12;0.72;;;0.72;;
23668;SDS011;12011;47.422;15.018;2022-09-03T10:51:22;0.71;;;0.71;;
23668;SDS011;12011;47.422;15.018;2022-09-03T10:54:04;0.58;;;0.58;;
23668;SDS011;12011;47.422;15.018;2022-09-03T10:56:57;0.55;;;0.55;;
23668;SDS011;12011;47.422;15.018;2022-09-03T10:59:43;0.91;;;0.91;;
23668;SDS011;12011;47.422;15.018;2022-09-03T11:05:55;0.67;;;0.67;;
23668;SDS011;12011;47.422;15.018;2022-09-03T11:08:31;0.63;;;0.63;;
23668;SDS011;12011;47.422;15.018;2022-09-03T11:11:10;0.70;;;0.70;;
23668;SDS011;12011;47.422;15.018;2022-09-03T11:13:48;0.74;;;0.74;;
23668;SDS011;12011;47.422;15.018;2022-09-03T11:16:24;0.70;;;0.70;;
23668;SDS011;12011;47.422;15.018;2022-09-03T11:19:03;0.57;;;0.57;;
23668;SDS011;12011;47.422;15.018;2022-09-03T11:21:37;0.67;;;0.67;;
23668;SDS011;12011;47.422;15.018;2022-09-03T11:24:10;0.69;;;0.69;;
23668;SDS011;12011;47.422;15.018;2022-09-03T11:26:46;0.57;;;0.57;;
23668;SDS011;12011;47.422;15.018;2022-09-03T11:29:24;0.69;;;0.69;;
23668;SDS011;12011;47.422;15.018;2022-09-03T11:32:04;0.72;;;0.72;;
23668;SDS011;12011;47.422;15.018;2022-09-03T11:34:47;0.72;;;0.72;;
23668;SDS011;12011;47.422;15.018;2022-09-03T11:37:20;0.74;;;0.74;;
23668;SDS011;12011;47.422;15.018;2022-09-03T11:39:55;0.67;;;0.67;;
23668;SDS011;12011;47.422;15.018;2022-09-03T11:42:33;0.78;;;0.78;;
23668;SDS011;12011;47.422;15.018;2022-09-03T11:45:13;0.85;;;0.85;;
23668;SDS011;12011;47.422;15.018;2022-09-03T11:47:52;0.90;;;0.90;;
23668;SDS011;12011;47.422;15.018;2022-09-03T11:50:25;0.92;;;0.92;;
23668;SDS011;12011;47.422;15.018;2022-09-03T11:53:06;0.92;;;0.92;;
23668;SDS011;12011;47.422;15.018;2022-09-03T11:55:49;0.84;;;0.84;;
23668;SDS011;12011;47.422;15.018;2022-09-03T11:58:24;0.93;;;0.93;;
23668;SDS011;12011;47.422;15.018;2022-09-03T12:01:00;0.89;;;0.89;;
23668;SDS011;12011;47.422;15.018;2022-09-03T12:03:37;0.89;;;0.89;;
23668;SDS011;12011;47.422;15.018;2022-09-03T12:06:31;0.93;;;0.93;;
23668;SDS011;12011;47.422;15.018;2022-09-03T12:12:49;1.09;;;1.09;;
23668;SDS011;12011;47.422;15.018;2022-09-03T12:15:48;0.96;;;0.96;;
23668;SDS011;12011;47.422;15.018;2022-09-03T12:18:45;0.91;;;0.91;;
23668;SDS011;12011;47.422;15.018;2022-09-03T12:21:17;0.79;;;0.79;;
23668;SDS011;12011;47.422;15.018;2022-09-03T12:23:50;0.93;;;0.93;;
23668;SDS011;12011;47.422;15.018;2022-09-03T12:26:22;0.92;;;0.92;;
23668;SDS011;12011;47.422;15.018;2022-09-03T12:28:55;0.82;;;0.82;;
23668;SDS011;12011;47.422;15.018;2022-09-03T12:31:28;0.87;;;0.87;;
23668;SDS011;12011;47.422;15.018;2022-09-03T12:34:01;0.88;;;0.88;;
23668;SDS011;12011;47.422;15.018;2022-09-03T12:36:38;0.91;;;0.91;;
23668;SDS011;12011;47.422;15.018;2022-09-03T12:39:13;1.09;;;1.09;;
23668;SDS011;12011;47.422;15.018;2022-09-03T12:41:51;1.02;;;1.02;;
23668;SDS011;12011;47.422;15.018;2022-09-03T12:44:29;0.96;;;0.96;;
23668;SDS011;12011;47.422;15.018;2022-09-03T12:47:01;1.13;;;1.13;;
23668;SDS011;12011;47.422;15.018;2022-09-03T12:49:34;1.22;;;1.22;;
23668;SDS011;12011;47.422;15.018;2022-09-03T12:52:07;1.21;;;1.21;;
23668;SDS011;12011;47.422;15.018;2022-09-03T12:54:51;0.91;;;0.91;;
23668;SDS011;12011;47.422;15.018;2022-09-03T12:57:28;1.14;;;1.14;;
23668;SDS011;12011;47.422;15.018;2022-09-03T13:00:05;0.91;;;0.91;;
23668;SDS011;12011;47.422;15.018;2022-09-03T13:02:38;1.04;;;1.04;;
23668;SDS011;12011;47.422;15.018;2022-09-03T13:05:16;1.11;;;1.11;;
23668;SDS011;12011;47.422;15.018;2022-09-03T13:07:50;1.19;;;1.19;;
23668;SDS011;12011;47.422;15.018;2022-09-03T13:10:28;1.02;;;1.02;;
23668;SDS011;12011;47.422;15.018;2022-09-03T13:13:06;0.95;;;0.95;;
23668;SDS011;12011;47.422;15.018;2022-09-03T13:15:59;0.90;;;0.90;;
23668;SDS011;12011;47.422;15.018;2022-09-03T13:18:59;0.95;;;0.95;;
23668;SDS011;12011;47.422;15.018;2022-09-03T13:21:40;1.00;;;1.00;;
23668;SDS011;12011;47.422;15.018;2022-09-03T13:24:40;0.93;;;0.93;;
23668;SDS011;12011;47.422;15.018;2022-09-03T13:27:30;0.95;;;0.95;;
23668;SDS011;12011;47.422;15.018;2022-09-03T13:30:09;0.97;;;0.97;;
23668;SDS011;12011;47.422;15.018;2022-09-03T13:32:46;1.01;;;1.01;;
23668;SDS011;12011;47.422;15.018;2022-09-03T13:35:28;0.90;;;0.90;;
23668;SDS011;12011;47.422;15.018;2022-09-03T13:38:07;1.19;;;1.19;;
23668;SDS011;12011;47.422;15.018;2022-09-03T13:40:51;1.00;;;1.00;;
23668;SDS011;12011;47.422;15.018;2022-09-03T13:43:33;1.05;;;1.05;;
23668;SDS011;12011;47.422;15.018;2022-09-03T13:46:10;1.07;;;1.07;;
23668;SDS011;12011;47.422;15.018;2022-09-03T13:48:46;1.00;;;1.00;;
23668;SDS011;12011;47.422;15.018;2022-09-03T13:51:36;1.18;;;1.18;;
23668;SDS011;12011;47.422;15.018;2022-09-03T13:54:18;1.08;;;1.08;;
23668;SDS011;12011;47.422;15.018;2022-09-03T13:56:56;0.97;;;0.97;;
23668;SDS011;12011;47.422;15.018;2022-09-03T13:59:39;0.98;;;0.98;;
23668;SDS011;12011;47.422;15.018;2022-09-03T14:02:22;0.87;;;0.87;;
23668;SDS011;12011;47.422;15.018;2022-09-03T14:05:06;1.00;;;1.00;;
23668;SDS011;12011;47.422;15.018;2022-09-03T14:07:52;1.02;;;1.02;;
23668;SDS011;12011;47.422;15.018;2022-09-03T14:10:42;1.02;;;1.02;;
23668;SDS011;12011;47.422;15.018;2022-09-03T14:13:26;1.01;;;1.01;;
23668;SDS011;12011;47.422;15.018;2022-09-03T14:16:13;0.89;;;0.89;;
23668;SDS011;12011;47.422;15.018;2022-09-03T14:18:58;1.06;;;1.06;;
23668;SDS011;12011;47.422;15.018;2022-09-03T14:21:35;1.10;;;1.10;;
23668;SDS011;12011;47.422;15.018;2022-09-03T14:24:14;0.96;;;0.96;;
23668;SDS011;12011;47.422;15.018;2022-09-03T14:26:53;0.98;;;0.98;;
23668;SDS011;12011;47.422;15.018;2022-09-03T14:29:27;1.11;;;1.11;;
23668;SDS011;12011;47.422;15.018;2022-09-03T14:32:14;1.09;;;1.09;;
23668;SDS011;12011;47.422;15.018;2022-09-03T14:35:10;1.14;;;1.14;;
23668;SDS011;12011;47.422;15.018;2022-09-03T14:41:02;1.23;;;1.23;;
23668;SDS011;12011;47.422;15.018;2022-09-03T14:43:51;1.48;;;1.48;;
23668;SDS011;12011;47.422;15.018;2022-09-03T14:46:47;1.43;;;1.43;;
23668;SDS011;12011;47.422;15.018;2022-09-03T14:49:39;1.28;;;1.28;;
23668;SDS011;12011;47.422;15.018;2022-09-03T14:58:51;1.38;;;1.38;;
23668;SDS011;12011;47.422;15.018;2022-09-03T15:01:38;1.43;;;1.43;;
23668;SDS011;12011;47.422;15.018;2022-09-03T15:04:15;1.35;;;1.35;;
23668;SDS011;12011;47.422;15.018;2022-09-03T15:07:21;1.21;;;1.21;;
23668;SDS011;12011;47.422;15.018;2022-09-03T15:10:02;1.06;;;1.06;;
23668;SDS011;12011;47.422;15.018;2022-09-03T15:12:47;1.17;;;1.17;;
23668;SDS011;12011;47.422;15.018;2022-09-03T15:15:21;1.27;;;1.27;;
23668;SDS011;12011;47.422;15.018;2022-09-03T15:18:03;1.29;;;1.29;;
23668;SDS011;12011;47.422;15.018;2022-09-03T15:20:52;1.32;;;1.32;;
23668;SDS011;12011;47.422;15.018;2022-09-03T15:23:31;1.56;;;1.56;;
23668;SDS011;12011;47.422;15.018;2022-09-03T15:26:36;1.40;;;1.40;;
23668;SDS011;12011;47.422;15.018;2022-09-03T15:29:46;1.40;;;1.40;;
23668;SDS011;12011;47.422;15.018;2022-09-03T15:32:23;1.48;;;1.48;;
23668;SDS011;12011;47.422;15.018;2022-09-03T15:35:13;1.47;;;1.47;;
23668;SDS011;12011;47.422;15.018;2022-09-03T15:38:08;1.39;;;1.39;;
23668;SDS011;12011;47.422;15.018;2022-09-03T15:40:49;1.40;;;1.40;;
23668;SDS011;12011;47.422;15.018;2022-09-03T15:43:24;1.52;;;1.52;;
23668;SDS011;12011;47.422;15.018;2022-09-03T15:45:58;1.63;;;1.63;;
23668;SDS011;12011;47.422;15.018;2022-09-03T15:48:36;1.57;;;1.57;;
23668;SDS011;12011;47.422;15.018;2022-09-03T15:51:17;1.51;;;1.51;;
23668;SDS011;12011;47.422;15.018;2022-09-03T15:53:57;1.45;;;1.45;;
23668;SDS011;12011;47.422;15.018;2022-09-03T15:56:35;1.53;;;1.53;;
23668;SDS011;12011;47.422;15.018;2022-09-03T15:59:14;1.43;;;1.43;;